createdAt,value
2018-07-25T16:13:37.351Z,30.70
2018-07-25T16:17:37.291Z,30.20
2018-07-25T16:20:05.883Z,30.20
2018-07-25T16:35:30.270Z,34.50
2018-07-25T16:38:00.071Z,33.50
2018-07-25T16:40:29.456Z,33.60
2018-07-25T16:45:28.925Z,33.60
2018-07-25T16:47:59.387Z,33.60
2018-07-25T16:50:29.804Z,33.60
2018-07-25T16:53:00.328Z,33.90
2018-07-25T16:55:30.834Z,33.70
2018-07-25T16:58:00.063Z,33.50
2018-07-25T17:00:29.140Z,33.60
2018-07-25T17:02:58.404Z,33.50
2018-07-25T17:05:28.106Z,33.40
2018-07-25T17:10:28.270Z,33.20
2018-07-25T17:12:58.032Z,33.10
2018-07-25T17:15:27.329Z,33.50
2018-07-25T17:17:57.803Z,33.00
2018-07-25T17:20:26.180Z,32.90
2018-07-25T17:22:55.337Z,33.10
2018-07-25T17:25:24.019Z,32.80
2018-07-25T17:27:52.205Z,32.80
2018-07-25T17:30:21.702Z,32.80
2018-07-25T17:32:49.902Z,32.50
2018-07-25T17:35:18.163Z,32.50
2018-07-25T17:37:46.308Z,32.60
2018-07-25T17:40:14.521Z,32.20
2018-07-25T17:42:43.231Z,32.30
2018-07-25T17:45:12.932Z,32.20
2018-07-25T17:47:44.227Z,32.10
2018-07-25T17:50:12.752Z,32.10
2018-07-25T17:52:41.793Z,32.20
2018-07-25T17:55:12.020Z,32.20
2018-07-25T17:57:40.975Z,31.90
2018-07-25T18:00:10.752Z,31.90
2018-07-25T18:02:39.098Z,31.90
2018-07-25T18:05:08.860Z,31.90
2018-07-25T18:07:41.650Z,31.60
2018-07-25T18:10:10.644Z,31.60
2018-07-25T18:12:39.235Z,31.70
2018-07-25T18:15:10.641Z,31.60
2018-07-25T18:17:39.276Z,31.60
2018-07-25T18:20:08.454Z,31.60
2018-07-25T18:25:07.198Z,31.10
2018-07-25T18:27:35.754Z,31.00
2018-07-25T18:32:34.041Z,30.70
2018-07-25T18:37:31.433Z,30.90
2018-07-25T18:40:01.284Z,31.30
2018-07-25T18:42:30.050Z,30.90
2018-07-25T18:44:58.735Z,30.80
2018-07-25T18:49:55.782Z,30.50
2018-07-25T18:52:25.694Z,30.60
2018-07-25T18:54:55.514Z,30.60
2018-07-25T18:57:26.500Z,30.40
2018-07-25T19:02:24.089Z,30.20
2018-07-25T19:07:22.163Z,30.10
2018-07-25T19:09:51.034Z,29.90
2018-07-25T19:12:20.514Z,29.70
2018-07-25T19:14:55.932Z,29.70
2018-07-25T19:17:24.704Z,29.70
2018-07-25T19:19:53.248Z,29.60
2018-07-25T19:22:22.181Z,29.50
2018-07-25T19:24:52.489Z,29.40
2018-07-25T19:29:51.430Z,29.20
2018-07-25T19:32:20.487Z,29.10
2018-07-25T19:34:49.224Z,29.10
2018-07-25T19:39:46.604Z,29.10
2018-07-25T19:42:16.398Z,29.10
2018-07-25T19:44:46.315Z,29.50
2018-07-25T19:49:45.892Z,28.80
2018-07-25T19:52:14.842Z,28.70
2018-07-25T19:54:45.539Z,28.50
2018-07-25T19:57:16.630Z,29.10
2018-07-25T19:59:50.155Z,28.50
2018-07-25T20:02:19.052Z,28.40
2018-07-25T20:04:51.022Z,28.60
2018-07-25T20:07:20.143Z,28.20
2018-07-25T20:09:49.028Z,28.50
2018-07-25T20:12:18.074Z,28.10
2018-07-25T20:17:21.525Z,28.20
2018-07-25T20:19:50.363Z,28.10
2018-07-25T20:22:19.152Z,28.10
2018-07-25T20:24:47.898Z,28.00
2018-07-25T20:29:45.595Z,28.10
2018-07-25T20:32:14.493Z,28.00
2018-07-25T20:37:12.122Z,27.70
2018-07-25T20:39:40.896Z,28.30
2018-07-25T20:42:09.595Z,27.70
2018-07-25T20:44:38.487Z,27.70
2018-07-25T20:47:07.294Z,27.50
2018-07-25T20:49:36.439Z,27.60
2018-07-25T20:52:04.984Z,28.00
2018-07-25T20:54:33.690Z,27.60
2018-07-25T20:57:02.271Z,28.10
2018-07-25T20:59:31.007Z,27.40
2018-07-25T21:01:59.384Z,27.20
2018-07-25T21:04:29.722Z,27.30
2018-07-25T21:06:58.145Z,27.10
2018-07-25T21:09:26.416Z,27.10
2018-07-25T21:11:54.715Z,27.10
2018-07-25T21:14:22.981Z,27.20
2018-07-25T21:16:51.644Z,27.60
2018-07-25T21:19:20.355Z,27.10
2018-07-25T21:21:48.688Z,27.10
2018-07-25T21:24:17.111Z,27.40
2018-07-25T21:26:45.490Z,27.00
2018-07-25T21:29:13.807Z,27.50
2018-07-25T21:31:42.250Z,26.90
2018-07-25T21:34:11.653Z,26.80
2018-07-25T21:36:40.316Z,26.80
2018-07-25T21:39:12.211Z,27.20
2018-07-25T21:41:40.745Z,26.90
2018-07-25T21:44:09.316Z,26.70
2018-07-25T21:46:37.564Z,26.70
2018-07-25T21:51:35.088Z,26.60
2018-07-25T21:54:03.364Z,26.60
2018-07-25T21:56:32.041Z,26.50
2018-07-25T21:59:01.271Z,26.50
2018-07-25T22:01:29.904Z,26.40
2018-07-25T22:03:58.647Z,26.50
2018-07-25T22:06:27.355Z,26.70
2018-07-25T22:08:56.220Z,26.50
2018-07-25T22:11:25.038Z,26.30
2018-07-25T22:13:56.771Z,26.60
2018-07-25T22:16:26.704Z,26.20
2018-07-25T22:18:55.559Z,26.10
2018-07-25T22:21:24.192Z,26.20
2018-07-25T22:23:52.958Z,26.10
2018-07-25T22:26:21.590Z,26.10
2018-07-25T22:28:50.338Z,26.10
2018-07-25T22:31:18.996Z,25.90
2018-07-25T22:33:47.553Z,25.90
2018-07-25T22:36:16.213Z,26.20
2018-07-25T22:38:44.723Z,25.90
2018-07-25T22:41:13.160Z,25.90
2018-07-25T22:43:41.711Z,26.00
2018-07-25T22:46:10.330Z,26.30
2018-07-25T22:48:38.922Z,25.70
2018-07-25T22:51:07.568Z,25.70
2018-07-25T22:53:36.118Z,25.80
2018-07-25T22:56:05.533Z,25.80
2018-07-25T22:58:34.223Z,25.60
2018-07-25T23:01:02.889Z,25.60
2018-07-25T23:03:31.511Z,25.40
2018-07-25T23:06:00.120Z,25.50
2018-07-25T23:08:28.972Z,26.20
2018-07-25T23:10:58.242Z,25.60
2018-07-25T23:15:55.650Z,25.50
2018-07-25T23:18:24.277Z,25.50
2018-07-25T23:20:53.065Z,26.00
2018-07-25T23:23:21.738Z,25.60
2018-07-25T23:25:51.282Z,25.50
2018-07-25T23:28:20.186Z,25.40
2018-07-25T23:33:17.822Z,25.50
2018-07-25T23:35:46.293Z,25.50
2018-07-25T23:38:15.151Z,25.60
2018-07-25T23:43:13.805Z,25.30
2018-07-25T23:45:43.704Z,25.40
2018-07-25T23:48:13.443Z,25.40
2018-07-25T23:50:44.063Z,26.00
2018-07-25T23:53:16.131Z,25.60
2018-07-25T23:55:45.557Z,25.30
2018-07-25T23:58:14.963Z,25.20
